Time;durP1;ratioP1;P1;durP2;ratioP2;P2;SDS_P1;SDS_P2;PMS_P1;PMS_P2;Temp;Humidity;BMP_temperature;BMP_pressure;BME280_temperature;BME280_humidity;BME280_pressure;Samples;Min_cycle;Max_cycle;Signal;HPM_P1;HPM_P2
2021/04/14 00:04:00;;;;;;;7.33;3.33;;;6.20;31.00;;;;;;10490265;28;20232;-74
2021/04/14 00:09:02;;;;;;;3.77;3.47;;;6.10;31.10;;;;;;10493318;28;20310;-74
2021/04/14 00:14:05;;;;;;;3.30;3.07;;;6.00;30.90;;;;;;10490828;28;20311;-73
2021/04/14 00:19:08;;;;;;;3.57;3.27;;;5.90;31.20;;;;;;10487640;28;20259;-73
2021/04/14 00:24:11;;;;;;;3.23;2.97;;;6.00;31.50;;;;;;10486012;28;20228;-74
2021/04/14 00:29:18;;;;;;;3.87;3.27;;;5.80;31.10;;;;;;10479631;28;20225;-74
2021/04/14 00:34:21;;;;;;;3.50;3.20;;;5.70;31.20;;;;;;10492375;28;20255;-73
2021/04/14 00:39:25;;;;;;;4.70;3.17;;;5.70;31.30;;;;;;10481127;28;20711;-74
2021/04/14 00:44:28;;;;;;;3.83;3.27;;;5.60;31.20;;;;;;10498858;28;20312;-72
2021/04/14 00:49:31;;;;;;;3.53;3.23;;;5.70;31.30;;;;;;10485193;28;20236;-73
2021/04/14 00:54:33;;;;;;;3.57;3.27;;;5.50;31.30;;;;;;10490915;28;20740;-74
2021/04/14 00:59:35;;;;;;;3.97;3.67;;;5.50;31.20;;;;;;10488503;28;20248;-74
2021/04/14 01:04:39;;;;;;;4.03;3.70;;;5.40;31.30;;;;;;10491794;28;20303;-74
2021/04/14 01:09:41;;;;;;;3.57;3.27;;;5.40;31.50;;;;;;10490411;28;20232;-73
2021/04/14 01:14:43;;;;;;;3.67;3.33;;;5.30;31.50;;;;;;10488124;28;20232;-73
2021/04/14 01:19:46;;;;;;;3.87;3.47;;;5.30;31.70;;;;;;10487355;28;20267;-73
2021/04/14 01:24:50;;;;;;;4.60;3.37;;;5.30;31.90;;;;;;10488558;28;20240;-73
2021/04/14 01:29:52;;;;;;;3.80;2.90;;;5.30;31.70;;;;;;10480103;28;20239;-73
2021/04/14 01:34:54;;;;;;;3.30;3.00;;;5.30;31.70;;;;;;10484439;28;20315;-73
2021/04/14 01:39:57;;;;;;;2.70;2.50;;;5.50;31.70;;;;;;10484003;28;20264;-73
2021/04/14 01:44:59;;;;;;;3.30;3.00;;;5.50;31.70;;;;;;10484493;28;20252;-73
2021/04/14 01:50:01;;;;;;;3.70;3.20;;;5.30;31.70;;;;;;10484964;28;20260;-73
2021/04/14 01:55:06;;;;;;;3.50;2.93;;;5.40;31.80;;;;;;10484548;28;20759;-73
2021/04/14 02:00:15;;;;;;;6.33;3.07;;;5.30;31.50;;;;;;10488978;28;20659;-73
2021/04/14 02:05:20;;;;;;;3.10;2.70;;;5.20;31.70;;;;;;10487173;28;20282;-72
2021/04/14 02:10:24;;;;;;;2.77;2.47;;;5.30;31.60;;;;;;10476014;28;20717;-73
2021/04/14 02:15:28;;;;;;;2.03;1.93;;;5.20;31.50;;;;;;10489284;28;20307;-73
2021/04/14 02:20:32;;;;;;;2.23;2.03;;;5.20;31.30;;;;;;10480458;28;20240;-74
2021/04/14 02:25:35;;;;;;;2.67;1.83;;;5.10;31.40;;;;;;10486316;28;20304;-74
2021/04/14 02:30:38;;;;;;;4.67;3.03;;;5.00;31.30;;;;;;10485592;28;20228;-74
2021/04/14 02:35:41;;;;;;;3.53;3.23;;;5.10;31.50;;;;;;10489272;28;20251;-74
2021/04/14 02:40:44;;;;;;;3.27;3.03;;;4.80;31.40;;;;;;10485799;28;20259;-74
2021/04/14 02:45:47;;;;;;;3.73;2.97;;;4.70;31.70;;;;;;10486718;28;20331;-74
2021/04/14 02:50:49;;;;;;;5.70;3.53;;;4.60;31.60;;;;;;10485019;28;20255;-73
2021/04/14 02:55:52;;;;;;;4.10;3.10;;;4.60;31.50;;;;;;10482785;28;20464;-73
2021/04/14 03:00:54;;;;;;;5.23;3.07;;;4.50;31.80;;;;;;10497361;28;20323;-73
2021/04/14 03:05:57;;;;;;;3.90;3.50;;;4.40;31.80;;;;;;10489730;28;20240;-73
2021/04/14 03:11:00;;;;;;;3.23;2.93;;;4.30;31.80;;;;;;10495811;28;20235;-73
2021/04/14 03:16:03;;;;;;;3.07;2.77;;;4.20;32.10;;;;;;10492105;28;20228;-73
2021/04/14 03:21:05;;;;;;;2.87;2.57;;;4.20;32.20;;;;;;10489288;28;20307;-73
2021/04/14 03:26:08;;;;;;;3.50;2.60;;;4.30;32.40;;;;;;10493397;28;20236;-73
2021/04/14 03:31:11;;;;;;;3.03;2.80;;;4.20;32.40;;;;;;10491594;28;20304;-74
2021/04/14 03:36:13;;;;;;;3.80;2.90;;;4.20;32.20;;;;;;10493548;28;20236;-73
2021/04/14 03:41:17;;;;;;;3.10;2.73;;;4.20;32.00;;;;;;10489168;28;20610;-73
2021/04/14 03:46:19;;;;;;;2.80;2.40;;;4.10;32.20;;;;;;10481176;28;20236;-73
2021/04/14 03:51:25;;;;;;;2.83;2.63;;;4.10;32.20;;;;;;10496759;28;20597;-73
2021/04/14 03:56:29;;;;;;;3.60;2.60;;;4.10;32.40;;;;;;10490033;28;20230;-74
2021/04/14 04:01:32;;;;;;;3.60;2.80;;;4.10;32.20;;;;;;10488707;28;20285;-73
2021/04/14 04:06:34;;;;;;;2.87;2.30;;;4.20;32.20;;;;;;10490706;28;20671;-74
2021/04/14 04:11:38;;;;;;;2.67;2.47;;;4.10;32.00;;;;;;10487975;28;20339;-74
2021/04/14 04:16:40;;;;;;;2.37;2.23;;;4.00;32.30;;;;;;10489403;28;20248;-73
2021/04/14 04:21:43;;;;;;;3.47;3.00;;;4.10;32.40;;;;;;10486842;28;20232;-74
2021/04/14 04:26:46;;;;;;;3.00;2.67;;;4.00;32.40;;;;;;10489631;28;20731;-73
2021/04/14 04:31:48;;;;;;;2.67;2.23;;;4.00;32.40;;;;;;10489011;28;20696;-74
2021/04/14 04:36:52;;;;;;;2.90;2.70;;;4.00;32.20;;;;;;10499692;28;20247;-74
2021/04/14 04:41:55;;;;;;;2.93;2.63;;;4.00;32.20;;;;;;10488949;28;20232;-73
2021/04/14 04:46:57;;;;;;;3.00;2.73;;;4.00;32.20;;;;;;10488619;28;20310;-73
2021/04/14 04:51:59;;;;;;;3.07;2.60;;;4.10;32.30;;;;;;10489460;28;20231;-73
2021/04/14 04:57:03;;;;;;;10.13;5.30;;;4.10;32.30;;;;;;10490905;28;20321;-73
2021/04/14 05:02:05;;;;;;;6.03;4.40;;;4.00;32.30;;;;;;10488620;28;20319;-74
2021/04/14 05:07:08;;;;;;;4.27;3.60;;;4.00;32.20;;;;;;10488162;28;20269;-73
2021/04/14 05:12:11;;;;;;;4.53;3.10;;;4.00;32.40;;;;;;10498766;28;20228;-72
2021/04/14 05:17:14;;;;;;;4.17;3.37;;;4.00;32.40;;;;;;10485203;28;20722;-71
2021/04/14 05:22:16;;;;;;;5.80;4.17;;;4.00;32.20;;;;;;10489799;28;20228;-71
2021/04/14 05:27:19;;;;;;;5.90;5.30;;;4.00;32.20;;;;;;10488583;28;20311;-71
2021/04/14 05:32:21;;;;;;;39.27;26.13;;;4.00;32.40;;;;;;10488866;28;20339;-72
2021/04/14 05:37:23;;;;;;;9.50;6.23;;;4.00;32.40;;;;;;10488042;28;20314;-72
2021/04/14 05:42:27;;;;;;;5.00;4.50;;;4.10;32.70;;;;;;10486340;28;20260;-72
2021/04/14 05:47:29;;;;;;;5.57;4.00;;;4.00;32.90;;;;;;10484863;28;20704;-71
2021/04/14 05:52:31;;;;;;;4.90;3.40;;;4.00;32.90;;;;;;10486507;28;20679;-71
2021/04/14 05:57:35;;;;;;;3.70;3.40;;;4.10;33.10;;;;;;10498567;28;20250;-73
2021/04/14 06:02:41;;;;;;;4.07;3.30;;;4.00;33.40;;;;;;10501241;28;20270;-72
2021/04/14 06:07:44;;;;;;;3.33;3.03;;;3.90;33.30;;;;;;10492533;28;20224;-72
2021/04/14 06:12:47;;;;;;;3.73;3.13;;;3.90;33.40;;;;;;10489209;28;20732;-73
2021/04/14 06:17:49;;;;;;;3.93;3.20;;;3.90;33.70;;;;;;10480918;28;20311;-73
2021/04/14 06:22:52;;;;;;;4.00;3.53;;;3.90;33.80;;;;;;10487922;28;20336;-71
2021/04/14 06:28:00;;;;;;;6.23;4.30;;;4.00;34.00;;;;;;10482903;28;20236;-72
2021/04/14 06:33:03;;;;;;;6.07;4.60;;;4.10;34.20;;;;;;10471760;28;20316;-72
2021/04/14 06:38:06;;;;;;;6.77;3.70;;;4.20;34.20;;;;;;10530428;22;20706;-71
2021/04/14 06:43:20;;;;;;;5.10;3.40;;;4.40;34.40;;;;;;10506540;22;20307;-70
2021/04/14 06:48:30;;;;;;;4.80;3.13;;;4.50;35.00;;;;;;10477519;28;20238;-70
2021/04/14 06:53:59;;;;;;;3.93;3.03;;;4.70;34.30;;;;;;10488170;28;20224;-70
2021/04/14 06:59:04;;;;;;;4.37;3.07;;;4.80;34.70;;;;;;10489136;28;20323;-70
2021/04/14 07:04:10;;;;;;;2.43;2.23;;;4.90;34.30;;;;;;10484377;28;20248;-70
2021/04/14 07:09:22;;;;;;;4.23;3.10;;;5.10;34.30;;;;;;10468666;28;20229;-70
2021/04/14 07:14:26;;;;;;;3.37;2.47;;;5.20;34.60;;;;;;10479383;28;20300;-70
2021/04/14 07:19:45;;;;;;;2.80;2.30;;;5.40;34.60;;;;;;10480009;28;20228;-70
2021/04/14 07:24:52;;;;;;;3.87;2.40;;;5.50;34.60;;;;;;10471905;28;20224;-68
2021/04/14 07:30:02;;;;;;;2.97;2.70;;;5.70;34.50;;;;;;10479588;28;20670;-68
2021/04/14 07:35:13;;;;;;;3.23;2.57;;;5.90;34.70;;;;;;10488591;28;20319;-68
2021/04/14 07:40:22;;;;;;;6.23;2.70;;;6.00;34.70;;;;;;10487678;28;20311;-68
2021/04/14 07:45:29;;;;;;;4.40;2.87;;;6.10;34.60;;;;;;10490144;28;20307;-68
2021/04/14 07:50:36;;;;;;;5.00;2.80;;;6.30;34.20;;;;;;10482653;28;20339;-68
2021/04/14 07:55:38;;;;;;;2.97;2.67;;;6.40;34.10;;;;;;10491713;28;20227;-68
2021/04/14 08:00:43;;;;;;;3.00;2.30;;;6.50;34.00;;;;;;10463583;28;20273;-68
2021/04/14 08:05:45;;;;;;;2.83;2.30;;;6.70;34.10;;;;;;10459238;28;20320;-68
2021/04/14 08:10:56;;;;;;;3.10;2.60;;;6.80;34.00;;;;;;10472960;28;20319;-68
2021/04/14 08:16:09;;;;;;;3.03;2.57;;;7.00;34.50;;;;;;10472070;28;20228;-68
2021/04/14 08:21:15;;;;;;;3.30;2.17;;;7.30;34.20;;;;;;10476701;28;20230;-68
2021/04/14 08:26:24;;;;;;;2.90;2.20;;;7.50;33.90;;;;;;10468193;28;20339;-68
2021/04/14 08:36:52;;;;;;;2.57;2.37;;;7.90;33.70;;;;;;10481955;28;20303;-68
2021/04/14 08:42:14;;;;;;;3.50;2.30;;;8.10;33.70;;;;;;10485671;28;20323;-69
2021/04/14 08:47:25;;;;;;;7.60;2.60;;;8.30;34.00;;;;;;10486545;28;20743;-68
2021/04/14 08:52:28;;;;;;;3.07;2.40;;;8.60;33.70;;;;;;10487284;28;20228;-68
2021/04/14 08:57:31;;;;;;;3.60;2.27;;;8.90;33.80;;;;;;10484217;28;20323;-70
2021/04/14 09:02:35;;;;;;;3.17;2.50;;;9.20;34.00;;;;;;10482975;28;20699;-71
2021/04/14 09:07:42;;;;;;;2.87;2.17;;;9.50;33.30;;;;;;10489647;28;20232;-70
2021/04/14 09:12:50;;;;;;;2.30;2.10;;;9.80;33.20;;;;;;10491371;28;20307;-71
2021/04/14 09:17:58;;;;;;;4.47;2.50;;;10.10;31.60;;;;;;10488684;28;20315;-70
2021/04/14 09:23:03;;;;;;;2.17;1.73;;;10.30;31.10;;;;;;10484952;28;20239;-71
2021/04/14 09:28:07;;;;;;;3.77;1.97;;;10.50;30.10;;;;;;10488558;28;20252;-69
2021/04/14 09:33:21;;;;;;;2.20;1.97;;;10.60;30.00;;;;;;10485098;28;20263;-70
2021/04/14 09:38:33;;;;;;;2.77;1.70;;;10.60;29.10;;;;;;10475710;28;20281;-66
2021/04/14 09:43:38;;;;;;;1.60;1.50;;;10.80;28.90;;;;;;10488369;28;20255;-67
2021/04/14 09:48:44;;;;;;;2.90;2.40;;;11.00;29.20;;;;;;10484553;28;20309;-70
2021/04/14 09:53:48;;;;;;;2.80;2.60;;;11.10;29.10;;;;;;10489223;28;20225;-70
2021/04/14 09:58:55;;;;;;;3.03;2.73;;;11.00;29.00;;;;;;10483645;28;20224;-70
2021/04/14 10:04:01;;;;;;;4.67;2.80;;;10.90;28.90;;;;;;10485031;28;21001;-69
2021/04/14 10:09:06;;;;;;;3.23;2.50;;;10.50;28.70;;;;;;10487390;28;20235;-69
2021/04/14 10:14:10;;;;;;;3.00;2.80;;;10.20;28.50;;;;;;10487417;28;20270;-69
2021/04/14 10:19:24;;;;;;;4.37;2.50;;;9.90;29.30;;;;;;10488751;28;20231;-69
2021/04/14 10:24:26;;;;;;;2.93;2.73;;;9.70;29.40;;;;;;10483513;28;20228;-69
2021/04/14 10:29:34;;;;;;;2.10;2.00;;;9.60;30.00;;;;;;10492709;28;20228;-69
2021/04/14 10:34:38;;;;;;;2.70;2.07;;;9.50;29.70;;;;;;10495914;28;20281;-69
2021/04/14 10:39:40;;;;;;;4.13;3.30;;;9.50;29.90;;;;;;10493487;28;20739;-72
2021/04/14 10:44:43;;;;;;;3.13;2.73;;;9.60;30.40;;;;;;10491907;28;20224;-72
2021/04/14 10:49:46;;;;;;;3.23;2.87;;;9.60;30.50;;;;;;10493280;28;20260;-72
2021/04/14 10:54:52;;;;;;;3.77;3.30;;;9.60;31.70;;;;;;10490239;28;20323;-72
2021/04/14 11:00:01;;;;;;;2.83;2.63;;;9.90;32.00;;;;;;10492811;28;20617;-72
2021/04/14 11:05:07;;;;;;;2.50;2.30;;;10.10;29.90;;;;;;10494075;28;20232;-72
2021/04/14 11:10:13;;;;;;;3.10;2.40;;;10.20;29.70;;;;;;10491255;28;20311;-72
2021/04/14 11:15:19;;;;;;;3.13;2.20;;;10.30;29.40;;;;;;10494790;28;20251;-72
2021/04/14 11:20:25;;;;;;;2.10;2.00;;;10.30;29.20;;;;;;10486890;28;20253;-72
2021/04/14 11:25:31;;;;;;;1.50;1.30;;;10.30;29.30;;;;;;10491380;28;20319;-72
2021/04/14 11:30:45;;;;;;;3.80;1.30;;;10.30;28.50;;;;;;10488525;28;20228;-72
2021/04/14 11:35:51;;;;;;;2.43;1.20;;;10.30;28.50;;;;;;10488486;28;20255;-72
2021/04/14 11:40:53;;;;;;;1.50;1.20;;;10.20;28.50;;;;;;10490588;28;20311;-72
2021/04/14 11:46:05;;;;;;;1.00;0.90;;;10.20;28.50;;;;;;10492915;28;20795;-72
2021/04/14 11:51:18;;;;;;;1.30;1.20;;;10.20;28.50;;;;;;10478307;28;20400;-72
2021/04/14 11:56:46;;;;;;;1.30;1.20;;;10.30;27.60;;;;;;10491823;28;20255;-73
2021/04/14 12:01:56;;;;;;;1.33;1.10;;;10.30;27.40;;;;;;10479898;28;20299;-72
2021/04/14 12:07:00;;;;;;;1.30;1.20;;;10.30;27.90;;;;;;10476293;28;20322;-72
2021/04/14 12:12:08;;;;;;;2.70;1.43;;;10.40;28.60;;;;;;10473192;28;20221;-72
2021/04/14 12:17:11;;;;;;;2.90;1.47;;;10.50;27.80;;;;;;10481074;28;20256;-71
2021/04/14 12:22:15;;;;;;;1.67;1.30;;;10.60;28.70;;;;;;10477423;28;20236;-72
2021/04/14 12:27:17;;;;;;;1.83;1.37;;;10.70;28.80;;;;;;10490810;28;20247;-67
2021/04/14 12:32:20;;;;;;;2.80;1.33;;;10.90;28.90;;;;;;10486496;28;20256;-72
2021/04/14 12:37:23;;;;;;;1.90;1.37;;;11.00;28.50;;;;;;10494710;22;20212;-70
2021/04/14 12:42:26;;;;;;;2.73;1.60;;;11.20;28.50;;;;;;10448176;28;20249;-72
2021/04/14 12:47:28;;;;;;;1.57;1.20;;;11.30;28.40;;;;;;10441802;28;20234;-71
2021/04/14 12:52:35;;;;;;;3.40;1.30;;;11.40;28.00;;;;;;10402996;28;20623;-72
2021/04/14 12:57:41;;;;;;;1.40;1.27;;;11.40;26.70;;;;;;10407672;28;20232;-72
2021/04/14 13:02:47;;;;;;;1.40;1.10;;;11.50;27.70;;;;;;10406808;28;20273;-71
2021/04/14 13:07:55;;;;;;;3.50;1.30;;;11.50;26.30;;;;;;10405883;28;20701;-72
2021/04/14 13:12:58;;;;;;;1.10;1.10;;;11.50;26.10;;;;;;10407616;28;20573;-72
2021/04/14 13:18:01;;;;;;;1.63;1.47;;;11.60;26.80;;;;;;10406841;28;20653;-72
2021/04/14 13:23:12;;;;;;;1.70;1.37;;;11.60;27.10;;;;;;10406389;28;20237;-72
2021/04/14 13:28:20;;;;;;;1.83;1.40;;;11.70;26.10;;;;;;10407105;28;20340;-72
2021/04/14 13:33:29;;;;;;;3.93;1.60;;;11.80;25.10;;;;;;10400954;28;20339;-72
2021/04/14 13:38:34;;;;;;;1.60;1.30;;;11.80;25.10;;;;;;10404155;28;20260;-72
2021/04/14 13:43:41;;;;;;;3.00;1.50;;;11.80;25.30;;;;;;10404682;28;20222;-72
2021/04/14 13:48:51;;;;;;;1.73;1.50;;;11.80;25.00;;;;;;10405861;28;20256;-72
2021/04/14 13:53:55;;;;;;;2.90;1.77;;;11.60;24.60;;;;;;10403447;28;20272;-72
2021/04/14 13:59:05;;;;;;;1.70;1.60;;;11.30;25.00;;;;;;10405825;28;20304;-72
2021/04/14 14:04:09;;;;;;;1.97;1.73;;;11.00;25.60;;;;;;10403403;28;20319;-68
2021/04/14 14:09:18;;;;;;;3.70;1.80;;;10.80;26.40;;;;;;10406343;28;20229;-72
2021/04/14 14:14:20;;;;;;;2.67;1.97;;;10.60;26.30;;;;;;10405782;28;20340;-71
2021/04/14 14:19:28;;;;;;;2.97;1.90;;;10.40;26.60;;;;;;10392466;28;20705;-72
2021/04/14 14:24:32;;;;;;;3.03;1.73;;;10.10;26.70;;;;;;10394954;28;20233;-71
2021/04/14 14:29:37;;;;;;;2.40;1.80;;;9.90;27.30;;;;;;10398180;28;20320;-71
2021/04/14 14:34:40;;;;;;;2.67;1.70;;;9.80;27.70;;;;;;10380965;28;20233;-72
2021/04/14 14:39:47;;;;;;;2.47;1.80;;;9.80;27.80;;;;;;10391311;28;20230;-71
2021/04/14 14:44:55;;;;;;;2.07;1.70;;;9.70;27.70;;;;;;10381050;28;20843;-72
2021/04/14 14:50:03;;;;;;;1.90;1.80;;;9.80;28.00;;;;;;10379087;28;20260;-72
2021/04/14 14:55:08;;;;;;;1.80;1.70;;;9.80;27.90;;;;;;10395306;28;20256;-72
2021/04/14 15:00:16;;;;;;;1.90;1.70;;;9.90;27.80;;;;;;10401525;28;20245;-72
2021/04/14 15:05:19;;;;;;;1.93;1.80;;;10.00;26.80;;;;;;10387843;28;20297;-71
2021/04/14 15:10:26;;;;;;;1.97;1.70;;;10.00;27.20;;;;;;10403784;28;20237;-71
2021/04/14 15:15:28;;;;;;;1.63;1.53;;;10.20;26.90;;;;;;10406333;28;20225;-71
2021/04/14 15:20:33;;;;;;;2.53;1.43;;;10.30;27.00;;;;;;10406077;28;20250;-71
2021/04/14 15:25:37;;;;;;;1.50;1.40;;;10.40;26.80;;;;;;10409262;28;20226;-73
2021/04/14 15:30:39;;;;;;;1.47;1.37;;;10.50;26.30;;;;;;10398496;28;20705;-72
2021/04/14 15:35:41;;;;;;;3.00;1.60;;;10.60;26.60;;;;;;10396273;28;20705;-73
2021/04/14 15:40:44;;;;;;;2.80;1.37;;;10.70;26.00;;;;;;10394851;28;20974;-72
2021/04/14 15:45:46;;;;;;;1.80;1.40;;;10.70;26.00;;;;;;10389850;28;20235;-73
2021/04/14 15:50:49;;;;;;;1.80;1.50;;;10.70;26.30;;;;;;10397828;28;20316;-72
2021/04/14 15:55:52;;;;;;;2.33;1.50;;;10.80;26.00;;;;;;10397545;28;20298;-72
2021/04/14 16:00:54;;;;;;;3.87;2.10;;;10.80;26.10;;;;;;10401106;28;20316;-73
2021/04/14 16:05:57;;;;;;;1.53;1.43;;;10.80;26.00;;;;;;10392790;28;20257;-72
2021/04/14 16:11:00;;;;;;;2.47;1.90;;;10.70;26.00;;;;;;10402043;28;20669;-73
2021/04/14 16:16:02;;;;;;;2.03;1.77;;;10.80;25.80;;;;;;10399339;28;20313;-73
2021/04/14 16:21:05;;;;;;;4.67;2.43;;;10.80;26.50;;;;;;10403992;28;20261;-72
2021/04/14 16:26:08;;;;;;;2.00;1.70;;;10.80;26.50;;;;;;10387425;28;20311;-73
2021/04/14 16:31:11;;;;;;;1.87;1.73;;;10.70;26.30;;;;;;10395010;28;20229;-73
2021/04/14 16:36:13;;;;;;;2.23;1.50;;;10.70;26.40;;;;;;10399552;28;20773;-73
2021/04/14 16:41:16;;;;;;;1.87;1.60;;;10.70;26.40;;;;;;10393841;28;20236;-73
2021/04/14 16:46:19;;;;;;;2.13;1.63;;;10.70;26.20;;;;;;10384279;28;20226;-73
2021/04/14 16:51:23;;;;;;;2.30;1.87;;;10.70;26.30;;;;;;10395322;28;20233;-73
2021/04/14 16:56:27;;;;;;;1.63;1.53;;;10.70;26.40;;;;;;10397112;28;20249;-73
2021/04/14 17:01:29;;;;;;;3.40;2.10;;;10.70;26.30;;;;;;10395349;28;20250;-72
2021/04/14 17:06:33;;;;;;;3.20;2.10;;;10.70;26.40;;;;;;10398316;28;20279;-73
2021/04/14 17:11:36;;;;;;;2.77;1.80;;;10.60;26.20;;;;;;10404011;28;20260;-73
2021/04/14 17:16:39;;;;;;;3.27;1.90;;;10.60;26.30;;;;;;10398176;28;20670;-73
2021/04/14 17:21:42;;;;;;;3.43;2.00;;;10.50;26.30;;;;;;10397676;28;20234;-73
2021/04/14 17:26:46;;;;;;;2.57;1.70;;;10.50;26.30;;;;;;10400591;28;20825;-73
2021/04/14 17:31:48;;;;;;;2.90;1.73;;;10.40;26.50;;;;;;10406320;28;20317;-73
2021/04/14 17:36:51;;;;;;;2.20;1.93;;;10.30;26.60;;;;;;10408210;28;20751;-73
2021/04/14 17:41:54;;;;;;;2.13;1.90;;;10.20;26.70;;;;;;10407156;28;20328;-72
2021/04/14 17:46:56;;;;;;;3.90;1.83;;;10.20;26.70;;;;;;10407214;28;20251;-72
2021/04/14 17:51:59;;;;;;;2.67;1.50;;;10.10;26.60;;;;;;10412215;28;20260;-72
2021/04/14 17:57:03;;;;;;;2.13;1.60;;;10.10;26.70;;;;;;10407858;28;20304;-73
2021/04/14 18:02:05;;;;;;;1.63;1.53;;;10.00;26.70;;;;;;10415815;28;20240;-74
2021/04/14 18:07:08;;;;;;;2.63;1.63;;;9.90;27.40;;;;;;10405439;28;20256;-74
2021/04/14 18:12:11;;;;;;;2.30;1.83;;;9.90;27.50;;;;;;10410980;28;20329;-74
2021/04/14 18:17:13;;;;;;;64.00;32.77;;;9.90;27.70;;;;;;10408613;28;20245;-74
2021/04/14 18:22:16;;;;;;;94.73;42.33;;;9.90;27.90;;;;;;10408535;28;20272;-74
2021/04/14 18:27:19;;;;;;;55.50;32.07;;;9.90;27.90;;;;;;10412300;28;20221;-74
2021/04/14 18:32:22;;;;;;;12.53;9.13;;;9.90;27.70;;;;;;10414373;28;20268;-74
2021/04/14 18:42:38;;;;;;;7.50;6.47;;;9.90;27.50;;;;;;10510583;28;20282;-75
2021/04/14 18:47:42;;;;;;;4.70;3.87;;;9.90;27.60;;;;;;10523656;28;20254;-75
2021/04/14 18:52:44;;;;;;;4.40;4.00;;;9.80;27.70;;;;;;10521532;22;20259;-75
2021/04/14 18:57:47;;;;;;;3.10;2.80;;;9.80;27.90;;;;;;10496982;28;20307;-74
2021/04/14 19:02:50;;;;;;;2.77;2.53;;;9.80;28.00;;;;;;10497808;28;20263;-76
2021/04/14 19:07:52;;;;;;;2.30;2.10;;;9.70;28.00;;;;;;10492743;28;20315;-72
2021/04/14 19:12:56;;;;;;;2.10;1.90;;;9.70;28.10;;;;;;10497349;28;20672;-72
2021/04/14 19:17:59;;;;;;;1.90;1.80;;;9.60;28.10;;;;;;10497200;28;20312;-72
2021/04/14 19:23:02;;;;;;;2.30;2.07;;;9.60;28.30;;;;;;10577641;27;20642;-73
2021/04/14 19:28:06;;;;;;;2.30;2.10;;;9.60;28.40;;;;;;10579878;28;20247;-72
2021/04/14 19:33:08;;;;;;;3.47;2.60;;;9.60;28.50;;;;;;10580138;28;20223;-74
2021/04/14 19:38:13;;;;;;;3.80;3.20;;;9.60;28.50;;;;;;10579892;28;20227;-74
2021/04/14 19:43:17;;;;;;;3.93;3.10;;;9.50;28.50;;;;;;10579996;28;20321;-75
2021/04/14 19:48:19;;;;;;;5.17;3.93;;;9.50;28.60;;;;;;10580548;27;20273;-74
2021/04/14 19:53:22;;;;;;;5.57;4.33;;;9.50;28.60;;;;;;10585899;27;20306;-79
2021/04/14 19:58:25;;;;;;;6.07;4.50;;;9.40;28.70;;;;;;10590980;28;20308;-79
2021/04/14 20:03:28;;;;;;;4.73;4.23;;;9.40;28.70;;;;;;10587480;27;20235;-79
2021/04/14 20:08:30;;;;;;;6.43;5.23;;;9.30;28.60;;;;;;10587504;28;20229;-80
2021/04/14 20:13:34;;;;;;;6.93;5.50;;;9.20;28.50;;;;;;10586115;27;20597;-79
2021/04/14 20:18:36;;;;;;;6.90;5.50;;;9.10;28.50;;;;;;10584478;28;20227;-79
2021/04/14 20:23:41;;;;;;;4.90;4.40;;;9.10;28.50;;;;;;10582571;28;20254;-79
2021/04/14 20:28:44;;;;;;;4.47;4.07;;;9.00;28.50;;;;;;10582655;28;20300;-79
2021/04/14 20:33:46;;;;;;;3.60;3.30;;;8.90;28.40;;;;;;10577716;27;20238;-79
2021/04/14 20:38:50;;;;;;;5.60;4.50;;;8.70;28.30;;;;;;10590166;27;20223;-79
2021/04/14 20:43:54;;;;;;;4.83;4.30;;;8.60;28.60;;;;;;10581931;28;20254;-78
2021/04/14 20:48:56;;;;;;;4.93;4.40;;;8.60;28.70;;;;;;10582296;28;20256;-79
2021/04/14 20:53:59;;;;;;;4.30;3.90;;;8.50;28.60;;;;;;10581879;28;20231;-79
2021/04/14 20:59:02;;;;;;;4.40;3.57;;;8.50;28.80;;;;;;10584112;27;20226;-79
2021/04/14 21:04:05;;;;;;;4.40;4.00;;;8.40;28.80;;;;;;10585205;27;20231;-79
2021/04/14 21:09:07;;;;;;;4.57;3.90;;;8.40;28.80;;;;;;10585628;27;20223;-79
2021/04/14 21:14:11;;;;;;;5.00;4.50;;;8.40;28.80;;;;;;10583591;28;20223;-79
2021/04/14 21:19:13;;;;;;;4.60;4.17;;;8.40;28.90;;;;;;10581645;27;20270;-79
2021/04/14 21:24:15;;;;;;;3.40;3.10;;;8.40;28.90;;;;;;10574336;27;20734;-79
2021/04/14 21:29:19;;;;;;;3.87;3.20;;;8.30;28.80;;;;;;10581319;28;20226;-79
2021/04/14 21:34:21;;;;;;;2.90;2.60;;;8.30;28.80;;;;;;10581580;28;20295;-78
2021/04/14 21:39:24;;;;;;;3.80;2.67;;;8.20;28.60;;;;;;10586877;27;20755;-78
2021/04/14 21:44:27;;;;;;;3.43;2.97;;;8.10;28.60;;;;;;10580579;27;20230;-79
2021/04/14 21:49:29;;;;;;;4.13;3.70;;;8.00;28.70;;;;;;10580190;28;20251;-79
2021/04/14 21:54:32;;;;;;;4.50;3.93;;;7.90;28.80;;;;;;10579425;28;20230;-79
2021/04/14 21:59:35;;;;;;;6.77;3.70;;;7.80;28.80;;;;;;10575526;28;20351;-79
2021/04/14 22:04:38;;;;;;;4.70;4.03;;;7.60;28.90;;;;;;10581050;28;20219;-79
2021/04/14 22:09:40;;;;;;;3.93;3.13;;;7.50;28.90;;;;;;10586927;28;20636;-79
2021/04/14 22:14:43;;;;;;;4.07;3.50;;;7.50;29.10;;;;;;10589253;28;20740;-79
2021/04/14 22:19:45;;;;;;;4.93;3.43;;;7.40;29.20;;;;;;10587836;28;20222;-79
2021/04/14 22:24:48;;;;;;;3.53;3.23;;;7.40;29.20;;;;;;10586806;27;20339;-79
2021/04/14 22:29:51;;;;;;;3.53;2.83;;;7.40;29.30;;;;;;10580636;28;20298;-79
2021/04/14 22:34:55;;;;;;;3.13;2.70;;;7.30;29.30;;;;;;10583497;27;20820;-79
2021/04/14 22:39:58;;;;;;;2.13;1.80;;;7.40;29.40;;;;;;10587314;28;20227;-79
2021/04/14 22:45:01;;;;;;;2.73;2.37;;;7.30;29.30;;;;;;10586130;27;20725;-79
2021/04/14 22:50:05;;;;;;;2.27;2.07;;;7.30;29.40;;;;;;10586817;27;20906;-78
2021/04/14 22:55:08;;;;;;;2.63;2.40;;;7.40;29.40;;;;;;10586870;27;20219;-79
2021/04/14 23:00:14;;;;;;;3.20;2.03;;;7.30;29.40;;;;;;10581222;28;20257;-79
2021/04/14 23:05:17;;;;;;;2.90;1.97;;;7.30;29.70;;;;;;10586865;27;20262;-79
2021/04/14 23:10:23;;;;;;;1.70;1.60;;;7.30;29.40;;;;;;10581080;27;20222;-79
2021/04/14 23:15:27;;;;;;;3.10;2.30;;;7.20;29.60;;;;;;10581401;27;20250;-79
2021/04/14 23:20:32;;;;;;;1.87;1.77;;;7.10;29.60;;;;;;10584590;28;20223;-79
2021/04/14 23:25:35;;;;;;;2.33;2.13;;;7.10;29.60;;;;;;10584848;27;20242;-79
2021/04/14 23:30:40;;;;;;;2.10;2.00;;;7.10;29.50;;;;;;10586209;28;20264;-79
2021/04/14 23:35:43;;;;;;;3.57;2.30;;;7.00;29.60;;;;;;10582250;28;20311;-79
2021/04/14 23:40:47;;;;;;;2.00;1.87;;;7.00;29.50;;;;;;10585562;27;20694;-79
2021/04/14 23:45:51;;;;;;;2.67;2.07;;;6.90;29.50;;;;;;10583386;27;20281;-79
2021/04/14 23:50:55;;;;;;;2.10;1.90;;;6.90;29.50;;;;;;10585661;27;20250;-79
2021/04/14 23:55:58;;;;;;;5.07;2.10;;;6.90;29.60;;;;;;10580656;28;20292;-79
